Town of Nocatee, Florida
Current Conditions -  °F | °C
As of 5:53 AM on Sunday 23 Nov 2014 (Local Time) from KCRG Reporting Station
Light Rain Light Rain  
Wind Chill: 69°   Ceiling: 1000
Heat Index: 69°   Visibility: 7mi
Dew Point: 68°   Wind: 6mph
Humidity: 96%   Direction: 170°S
Pressure: 30.01"   Gusts: NA
Location:  30.1736°N, 81.3956°W
Report Text: KCRG 231053Z AUTO 17005KT 7SM -RA SCT006 BKN010 OVC016 21/20 A3001 RMK AO2 LTG DSNT NE SLP163 P0050 T02060200
Loading
Personal Weather Stations






























Interactive Weather Map New forecast layout! Learn more

10-Day Weather Forecast

Advertisements
Track Severe Weather on mobile